Arcola, MS

2:25 PM CDT on July 30, 2016 (GMT -0500)
Mississippi Delta | | Change Station

Elev 126 ft 33.40 °N, 90.91 °W | Updated 1 second ago

Partly Cloudy
Partly Cloudy
91.9 °F
Feels Like 104 °F
N
2.9
Wind Variable Wind from NNW
Gusts 4.9 mph

Today
High -- | Low -- °F
--% Chance of Precip.
Yesterday
High -- | Low -- °F
Precip. -- in
Pressure 30.01 in
Visibility 10.0 miles
Clouds Few 3400 ft
Heat Index 104 °F
Dew Point 76 °F
Humidity 60%
Rainfall 0.00 in
Snow Depth Not available.
6:15 AM 8:04 PM
Waning Crescent, 11% visible
METAR KGLH 301853Z AUTO 29006KT 10SM FEW034 33/23 A3000 RMK AO2 LTG DSNT S SLP161 T03280233
Pressure 30.01 in
Visibility 10.0 miles
Clouds Few 3400 ft
Heat Index 104 °F
Dew Point 76 °F
Humidity 60%
Rainfall 0.00 in
Snow Depth Not available.
6:15 AM 8:04 PM
Waning Crescent, 11% visible
METAR KGLH 301853Z AUTO 29006KT 10SM FEW034 33/23 A3000 RMK AO2 LTG DSNT S SLP161 T03280233

10-Day Weather Forecast

Almanac

Astronomy

Jul. 30, 2016 Rise Set
Actual Time
Civil Twilight
Nautical Twilight
Astronomical Twilight
Moon
Length of Visible Light
Length of Day
Tomorrow will be .
, % of the Moon is Illuminated

Today's Extremes

State Highs State Lows

Community

WunderPhotos

Upload Photos

1,928,625 photos uploaded!

WunderBlog® & News

Nearby

Air Quality

  Air Quality AQ Index Pollutant
Not available.

Snow Depth

Station Depth Elevation

Earthquake Activity

City Distance Mag. Time & Date
Minimum magnitude displayed is 2.5.

Coastal Water Temperatures

Place Temperature

Stations

Nearby Weather Stations

Station Location Temp. Windchill Dew Point Humidity Wind Precip. Elev Updated Type
                   

Watches & Warnings

There are currently no watches in effect.